Time;durP1;ratioP1;P1;durP2;ratioP2;P2;SDS_P1;SDS_P2;PMS_P1;PMS_P2;Temp;Humidity;BMP_temperature;BMP_pressure;BME280_temperature;BME280_humidity;BME280_pressure;Samples;Min_cycle;Max_cycle;Signal;HPM_P1;HPM_P2
2022/01/30 00:00:00;;;;;;;33.72;4.55;;;;;;;4.99;100.00;100525.69;5093894;28;20047;-76
2022/01/30 00:02:34;;;;;;;39.33;5.88;;;;;;;5.13;100.00;100530.84;5093725;28;20052;-76
2022/01/30 00:05:02;;;;;;;30.50;5.15;;;;;;;5.10;100.00;100526.00;5092065;28;20036;-76
2022/01/30 00:07:29;;;;;;;30.38;4.45;;;;;;;5.12;100.00;100529.19;5058614;28;20055;-76
2022/01/30 00:09:56;;;;;;;26.48;5.57;;;;;;;5.26;100.00;100558.16;5092208;28;20051;-76
2022/01/30 00:12:44;;;;;;;37.58;6.30;;;;;;;5.53;100.00;100587.00;5093684;28;20032;-76
2022/01/30 00:15:14;;;;;;;32.17;4.60;;;;;;;5.98;100.00;100587.50;5093194;28;20059;-77
2022/01/30 00:17:54;;;;;;;34.92;5.32;;;;;;;6.13;100.00;100588.69;5093332;28;20050;-77
2022/01/30 00:20:25;;;;;;;32.58;4.90;;;;;;;5.65;100.00;100577.84;5093412;28;20044;-77
2022/01/30 00:23:06;;;;;;;23.48;4.75;;;;;;;5.38;100.00;100583.03;5091663;28;20052;-77
2022/01/30 00:25:45;;;;;;;22.05;4.95;;;;;;;5.27;100.00;100581.91;5092074;28;20056;-77
2022/01/30 00:28:14;;;;;;;23.80;3.90;;;;;;;5.23;100.00;100569.94;5093225;28;20032;-76
2022/01/30 00:30:42;;;;;;;30.60;3.70;;;;;;;5.22;100.00;100587.72;5075162;28;20040;-77
2022/01/30 00:33:11;;;;;;;19.48;3.85;;;;;;;5.23;100.00;100592.09;5092082;28;20043;-77
2022/01/30 00:35:39;;;;;;;22.05;4.00;;;;;;;5.20;100.00;100590.03;5096174;28;20040;-76
2022/01/30 00:38:15;;;;;;;27.05;3.95;;;;;;;5.38;100.00;100601.63;5097160;28;20419;-77
2022/01/30 00:40:43;;;;;;;27.10;3.72;;;;;;;5.31;100.00;100620.84;5079264;28;20040;-77
2022/01/30 00:43:11;;;;;;;27.07;3.97;;;;;;;5.27;100.00;100612.41;5079154;28;20044;-77
2022/01/30 00:45:39;;;;;;;31.60;4.78;;;;;;;5.37;100.00;100624.97;5095645;28;20548;-77
2022/01/30 00:48:06;;;;;;;26.83;3.75;;;;;;;5.46;100.00;100614.53;5078936;28;20547;-77
2022/01/30 00:50:34;;;;;;;34.60;5.05;;;;;;;5.34;100.00;100609.03;5078713;28;20476;-77
2022/01/30 00:53:02;;;;;;;21.50;3.80;;;;;;;5.58;100.00;100620.03;5078965;28;20040;-77
2022/01/30 00:55:30;;;;;;;24.48;3.88;;;;;;;5.67;100.00;100622.66;5080294;28;20040;-77
2022/01/30 00:57:59;;;;;;;28.35;4.38;;;;;;;5.56;100.00;100625.13;5058880;28;20048;-77
2022/01/30 01:00:28;;;;;;;34.22;5.30;;;;;;;5.45;100.00;100627.59;5058731;28;20064;-77
2022/01/30 01:02:56;;;;;;;33.22;5.80;;;;;;;5.41;100.00;100614.78;5074470;28;20507;-77
2022/01/30 01:05:24;;;;;;;33.60;5.50;;;;;;;5.63;100.00;100628.91;5076698;28;20079;-77
2022/01/30 01:07:55;;;;;;;36.30;6.03;;;;;;;5.60;100.00;100612.97;5075234;28;20047;-77
2022/01/30 01:25:58;;;;;;;38.08;6.03;;;;;;;5.45;100.00;100599.09;5108656;28;20071;-77
2022/01/30 01:28:26;;;;;;;31.48;5.22;;;;;;;5.31;100.00;100605.03;5057880;28;20044;-76
2022/01/30 01:30:54;;;;;;;39.38;6.45;;;;;;;5.41;100.00;100612.00;5074775;28;20064;-77
2022/01/30 01:33:24;;;;;;;48.53;6.43;;;;;;;5.13;100.00;100602.88;5074624;28;20036;-77
2022/01/30 01:35:52;;;;;;;36.33;5.75;;;;;;;5.23;100.00;100589.34;5057971;28;20074;-77
2022/01/30 01:38:20;;;;;;;34.25;5.43;;;;;;;4.90;100.00;100599.81;5074352;28;20051;-77
2022/01/30 01:40:54;;;;;;;32.97;4.72;;;;;;;5.00;100.00;100596.56;5075938;28;20048;-77
2022/01/30 01:43:24;;;;;;;31.58;5.90;;;;;;;4.92;100.00;100594.72;5074513;28;20127;-77
2022/01/30 01:45:54;;;;;;;26.98;4.50;;;;;;;4.82;100.00;100606.28;5075387;28;20543;-77
2022/01/30 01:48:22;;;;;;;20.25;3.58;;;;;;;4.75;100.00;100603.31;5075426;28;20498;-77
2022/01/30 01:50:54;;;;;;;24.35;4.10;;;;;;;4.91;100.00;100622.75;5074166;28;20345;-77
2022/01/30 01:53:24;;;;;;;22.67;4.47;;;;;;;4.85;100.00;100611.13;5074168;28;20060;-77
2022/01/30 01:55:51;;;;;;;37.92;5.03;;;;;;;4.94;100.00;100605.44;5074279;28;20090;-76
2022/01/30 01:58:26;;;;;;;23.75;4.15;;;;;;;4.90;100.00;100597.03;5074419;28;20044;-77
2022/01/30 02:01:26;;;;;;;26.42;4.07;;;;;;;5.03;100.00;100611.66;5033012;28;20072;-77
2022/01/30 02:03:54;;;;;;;27.63;4.03;;;;;;;4.86;100.00;100621.03;5034959;28;20060;-77
2022/01/30 02:06:24;;;;;;;24.25;3.65;;;;;;;4.96;100.00;100617.00;5036189;28;20428;-77
2022/01/30 02:08:59;;;;;;;27.85;4.10;;;;;;;5.12;100.00;100615.09;5036472;28;20523;-77
2022/01/30 02:11:37;;;;;;;21.75;3.45;;;;;;;4.89;100.00;100609.25;5036112;28;20049;-76
2022/01/30 02:25:37;;;;;;;22.77;3.42;;;;;;;4.79;100.00;100615.28;5052235;28;20053;-77
2022/01/30 02:28:12;;;;;;;27.23;3.63;;;;;;;4.74;100.00;100623.81;5019449;28;20069;-77
2022/01/30 02:30:45;;;;;;;20.48;3.80;;;;;;;4.82;100.00;100625.66;5035764;28;20049;-76
2022/01/30 02:33:13;;;;;;;24.25;3.97;;;;;;;4.56;100.00;100614.16;5035744;28;20421;-77
2022/01/30 02:35:40;;;;;;;28.52;4.88;;;;;;;4.64;100.00;100601.34;5035384;28;20528;-77
2022/01/30 02:38:07;;;;;;;28.52;4.28;;;;;;;4.74;100.00;100606.41;5088809;28;20048;-77
2022/01/30 02:40:39;;;;;;;26.10;3.60;;;;;;;4.63;100.00;100599.72;5093718;28;20530;-77
2022/01/30 02:43:07;;;;;;;26.00;4.65;;;;;;;4.61;100.00;100613.09;5093666;28;20051;-77
2022/01/30 02:45:45;;;;;;;20.30;3.70;;;;;;;4.57;100.00;100613.00;5076738;28;20506;-76
2022/01/30 02:48:17;;;;;;;18.73;4.32;;;;;;;4.77;100.00;100606.50;5094919;28;20039;-77
2022/01/30 02:51:06;;;;;;;25.38;4.28;;;;;;;4.73;100.00;100626.94;5094910;28;20056;-77
2022/01/30 02:53:39;;;;;;;28.65;4.32;;;;;;;5.04;100.00;100625.16;5093523;28;20036;-77
2022/01/30 02:56:34;;;;;;;26.05;3.53;;;;;;;4.92;100.00;100641.00;5059480;28;20052;-77
2022/01/30 02:59:01;;;;;;;29.42;3.70;;;;;;;4.67;100.00;100622.78;5076551;28;20480;-77
2022/01/30 03:01:28;;;;;;;29.38;4.15;;;;;;;4.74;100.00;100623.81;5093510;28;20036;-77
2022/01/30 03:03:55;;;;;;;27.13;4.72;;;;;;;4.88;100.00;100632.59;5094313;28;20088;-77
2022/01/30 03:06:22;;;;;;;29.27;4.45;;;;;;;4.89;100.00;100612.03;5093357;28;20083;-77
2022/01/30 03:08:50;;;;;;;24.27;4.25;;;;;;;4.81;100.00;100607.44;5093183;28;20082;-77
2022/01/30 03:11:18;;;;;;;18.40;3.95;;;;;;;4.95;100.00;100618.94;5093192;28;20032;-77
2022/01/30 03:13:46;;;;;;;29.88;4.20;;;;;;;5.26;100.00;100619.13;5093076;28;20051;-77
2022/01/30 03:16:13;;;;;;;23.88;3.67;;;;;;;5.05;100.00;100607.41;5076177;28;20043;-77
2022/01/30 03:18:41;;;;;;;23.40;3.80;;;;;;;5.24;100.00;100598.47;5075898;28;20056;-77
2022/01/30 03:21:09;;;;;;;24.52;3.60;;;;;;;5.02;100.00;100593.44;5093315;28;20127;-77
2022/01/30 03:23:38;;;;;;;21.77;4.68;;;;;;;5.02;100.00;100619.19;5076059;28;20032;-76
2022/01/30 03:26:07;;;;;;;18.60;2.97;;;;;;;5.10;100.00;100609.91;5092636;28;20044;-77
2022/01/30 03:28:50;;;;;;;19.15;3.05;;;;;;;5.02;100.00;100597.03;5093106;28;20044;-77
2022/01/30 03:31:22;;;;;;;29.63;3.72;;;;;;;4.88;100.00;100587.44;5059395;28;20143;-77
2022/01/30 03:33:52;;;;;;;25.60;3.63;;;;;;;4.74;100.00;100562.13;5092900;28;20115;-76
2022/01/30 03:36:26;;;;;;;19.77;2.92;;;;;;;4.88;100.00;100577.19;5076050;28;20608;-77
2022/01/30 03:38:54;;;;;;;26.98;3.65;;;;;;;4.96;100.00;100554.09;5092796;28;20063;-77
2022/01/30 03:41:21;;;;;;;25.52;3.40;;;;;;;5.15;100.00;100572.88;5092880;28;20126;-76
2022/01/30 03:43:49;;;;;;;19.90;2.90;;;;;;;5.40;100.00;100564.09;5092877;28;20040;-77
2022/01/30 03:46:19;;;;;;;18.25;2.65;;;;;;;5.13;100.00;100564.91;5092675;28;20060;-77
2022/01/30 03:48:53;;;;;;;16.88;2.90;;;;;;;5.21;100.00;100561.16;5092627;28;20071;-77
2022/01/30 03:51:32;;;;;;;24.38;3.00;;;;;;;4.86;100.00;100543.47;5093874;28;20046;-76
2022/01/30 03:54:11;;;;;;;21.73;2.53;;;;;;;5.09;100.00;100527.94;5060936;28;20494;-76
2022/01/30 03:56:39;;;;;;;17.38;2.90;;;;;;;5.22;100.00;100543.38;5092556;28;20047;-77
2022/01/30 03:59:06;;;;;;;19.23;3.40;;;;;;;5.29;100.00;100534.44;5092369;28;20117;-77
2022/01/30 04:01:33;;;;;;;15.32;2.75;;;;;;;5.05;100.00;100518.75;5075774;28;20040;-77
2022/01/30 04:04:01;;;;;;;21.52;3.47;;;;;;;4.82;100.00;100542.59;5091885;28;20048;-77
2022/01/30 04:06:28;;;;;;;24.40;3.47;;;;;;;4.98;100.00;100556.50;5075054;28;20042;-77
2022/01/30 04:08:57;;;;;;;15.35;2.67;;;;;;;5.06;100.00;100558.31;5092022;28;20039;-76
2022/01/30 04:11:43;;;;;;;17.05;3.65;;;;;;;5.22;100.00;100567.50;5092541;28;20036;-77
2022/01/30 04:14:27;;;;;;;19.45;2.70;;;;;;;5.48;100.00;100554.81;5092135;28;20040;-77
2022/01/30 04:17:18;;;;;;;21.27;3.22;;;;;;;5.31;100.00;100549.59;5085122;28;20060;-77
2022/01/30 04:20:07;;;;;;;18.90;3.08;;;;;;;5.49;100.00;100550.88;5075457;28;20609;-77
2022/01/30 04:22:48;;;;;;;18.02;3.42;;;;;;;5.47;100.00;100553.19;5092148;28;20047;-77
2022/01/30 04:25:15;;;;;;;16.30;3.10;;;;;;;5.43;100.00;100566.16;5092182;28;20040;-77
2022/01/30 04:28:01;;;;;;;21.77;3.55;;;;;;;4.99;100.00;100575.56;5093133;28;20051;-77
2022/01/30 04:30:47;;;;;;;20.95;3.03;;;;;;;4.73;100.00;100589.00;5093647;28;20055;-77
2022/01/30 04:33:26;;;;;;;19.45;3.08;;;;;;;4.48;100.00;100584.63;5075424;28;20040;-77
2022/01/30 04:36:29;;;;;;;16.83;2.97;;;;;;;4.42;100.00;100583.25;5083690;28;20052;-77
2022/01/30 04:39:39;;;;;;;20.52;3.88;;;;;;;5.02;100.00;100574.84;5092312;28;20093;-77
2022/01/30 04:52:17;;;;;;;16.25;2.85;;;;;;;5.37;100.00;100588.94;5074079;28;20059;-77
2022/01/30 04:55:47;;;;;;;18.80;3.00;;;;;;;5.60;100.00;100574.16;5075022;28;20040;-77
2022/01/30 04:58:24;;;;;;;17.52;2.95;;;;;;;5.24;100.00;100579.84;5093078;28;20050;-77
2022/01/30 05:01:19;;;;;;;16.05;2.55;;;;;;;5.21;100.00;100569.47;5092489;28;20142;-77
2022/01/30 05:04:40;;;;;;;17.38;3.45;;;;;;;4.85;100.00;100577.06;5091907;28;20128;-77
2022/01/30 05:07:28;;;;;;;18.67;2.67;;;;;;;4.86;100.00;100587.81;5091819;28;20079;-77
2022/01/30 05:10:10;;;;;;;15.45;2.47;;;;;;;5.03;100.00;100593.09;5092739;28;20506;-77
2022/01/30 05:12:58;;;;;;;15.32;2.35;;;;;;;4.56;100.00;100597.53;5091524;28;20043;-77
2022/01/30 05:15:44;;;;;;;16.05;3.10;;;;;;;5.10;100.00;100611.91;5093002;28;20119;-77
2022/01/30 05:18:29;;;;;;;20.70;2.75;;;;;;;5.39;100.00;100590.19;5091517;28;20036;-77
2022/01/30 05:20:57;;;;;;;13.40;2.17;;;;;;;5.48;100.00;100585.28;5094480;28;20090;-77
2022/01/30 05:23:46;;;;;;;13.75;2.33;;;;;;;5.48;100.00;100576.97;5095342;28;20040;-77
2022/01/30 05:26:21;;;;;;;17.58;2.92;;;;;;;5.63;100.00;100591.25;5078184;28;20040;-77
2022/01/30 05:29:07;;;;;;;14.82;3.15;;;;;;;5.58;100.00;100598.69;5096304;28;20036;-77
2022/01/30 05:31:46;;;;;;;13.27;2.53;;;;;;;5.33;100.00;100599.91;5095094;28;20142;-77
2022/01/30 05:34:42;;;;;;;17.00;2.78;;;;;;;5.49;100.00;100611.88;5094593;28;20055;-77
2022/01/30 05:37:23;;;;;;;16.48;2.72;;;;;;;5.25;100.00;100611.97;5095070;28;20123;-77
2022/01/30 05:40:26;;;;;;;16.23;2.45;;;;;;;5.01;100.00;100594.59;5016924;28;20072;-77
2022/01/30 05:43:12;;;;;;;22.67;3.15;;;;;;;5.18;100.00;100600.66;5033520;28;20045;-77
2022/01/30 05:46:08;;;;;;;12.68;2.15;;;;;;;5.44;100.00;100598.25;5017056;28;20049;-77
2022/01/30 05:48:56;;;;;;;18.95;2.75;;;;;;;5.41;100.00;100576.78;5019191;28;20473;-77
2022/01/30 05:51:44;;;;;;;14.07;2.42;;;;;;;5.35;100.00;100586.53;5016904;28;20567;-77
2022/01/30 05:54:18;;;;;;;11.77;2.42;;;;;;;5.37;100.00;100606.38;5000360;28;20049;-77
2022/01/30 05:56:45;;;;;;;15.63;2.88;;;;;;;4.51;100.00;100602.50;5016771;28;20059;-77
2022/01/30 05:59:16;;;;;;;12.65;2.65;;;;;;;4.25;100.00;100600.06;5001150;28;20049;-77
2022/01/30 06:02:06;;;;;;;10.63;2.13;;;;;;;4.67;100.00;100612.53;5027777;28;20049;-77
2022/01/30 06:04:33;;;;;;;13.70;2.40;;;;;;;4.81;100.00;100618.53;5016619;28;20053;-77
2022/01/30 06:07:01;;;;;;;15.27;2.45;;;;;;;4.91;100.00;100620.00;4984058;28;20107;-77
2022/01/30 06:09:30;;;;;;;16.90;2.20;;;;;;;4.81;100.00;100613.00;5000480;28;20041;-77
2022/01/30 06:11:57;;;;;;;15.45;2.28;;;;;;;4.54;100.00;100616.47;5000342;28;20038;-77
2022/01/30 06:14:25;;;;;;;14.13;3.42;;;;;;;4.02;100.00;100618.25;5034927;28;20083;-77
2022/01/30 06:17:15;;;;;;;24.13;2.80;;;;;;;4.08;100.00;100627.13;5093185;28;20040;-77
2022/01/30 06:20:04;;;;;;;15.60;2.53;;;;;;;4.10;100.00;100631.19;5083675;28;20098;-77
2022/01/30 06:22:34;;;;;;;16.92;2.67;;;;;;;4.14;100.00;100621.03;5093874;28;20491;-77
2022/01/30 06:25:27;;;;;;;17.60;2.72;;;;;;;3.77;100.00;100630.41;5070666;28;20048;-77
2022/01/30 06:28:13;;;;;;;14.10;2.50;;;;;;;3.74;100.00;100628.31;5095293;28;20044;-77
2022/01/30 06:30:59;;;;;;;11.45;2.78;;;;;;;3.95;100.00;100644.84;5093913;28;20044;-77
2022/01/30 06:33:50;;;;;;;18.83;2.70;;;;;;;4.08;100.00;100627.94;5087585;28;20406;-77
2022/01/30 06:36:36;;;;;;;19.02;3.33;;;;;;;4.12;100.00;100634.41;5093823;28;20036;-77
2022/01/30 06:39:21;;;;;;;13.90;2.35;;;;;;;4.15;100.00;100636.47;5079469;28;20123;-77
2022/01/30 06:42:06;;;;;;;11.77;2.35;;;;;;;4.17;100.00;100636.94;5093762;28;20056;-77
2022/01/30 06:44:52;;;;;;;14.65;2.10;;;;;;;4.14;100.00;100642.34;5094838;28;20499;-77
2022/01/30 06:47:55;;;;;;;10.48;2.45;;;;;;;4.16;100.00;100635.34;5052056;28;20041;-77
2022/01/30 06:50:40;;;;;;;10.82;2.28;;;;;;;4.04;100.00;100631.75;5035627;28;20636;-77
2022/01/30 06:53:26;;;;;;;23.65;3.67;;;;;;;3.56;100.00;100629.63;5035679;28;20512;-77
2022/01/30 06:56:12;;;;;;;18.10;2.47;;;;;;;2.97;100.00;100625.44;5035288;28;20550;-77
2022/01/30 06:58:58;;;;;;;18.17;3.15;;;;;;;3.03;100.00;100640.66;5052171;28;20440;-77
2022/01/30 07:01:44;;;;;;;15.60;2.60;;;;;;;2.94;100.00;100631.63;5035244;28;20524;-77
2022/01/30 07:04:43;;;;;;;13.88;2.92;;;;;;;3.20;100.00;100634.97;5035085;28;20057;-77
2022/01/30 07:07:14;;;;;;;16.20;2.40;;;;;;;3.34;100.00;100636.34;5051834;28;20083;-77
2022/01/30 07:09:42;;;;;;;17.42;2.58;;;;;;;3.37;100.00;100635.66;5035187;28;20059;-77
2022/01/30 07:12:09;;;;;;;11.55;2.25;;;;;;;3.29;100.00;100638.47;5051834;28;20048;-77
2022/01/30 07:14:36;;;;;;;14.88;3.58;;;;;;;3.25;100.00;100637.53;5051129;28;20060;-77
2022/01/30 07:17:03;;;;;;;14.20;2.33;;;;;;;3.21;100.00;100636.63;5035027;28;20140;-77
2022/01/30 07:19:31;;;;;;;14.63;2.80;;;;;;;3.14;100.00;100626.09;5051641;28;20053;-77
2022/01/30 07:21:58;;;;;;;10.90;2.13;;;;;;;3.15;100.00;100621.38;5072607;28;20755;-77
2022/01/30 07:24:25;;;;;;;13.18;2.15;;;;;;;3.02;100.00;100633.50;5094312;28;20050;-77
2022/01/30 07:26:52;;;;;;;18.13;2.90;;;;;;;3.04;100.00;100634.78;5076271;28;20036;-77
2022/01/30 07:29:20;;;;;;;11.25;2.28;;;;;;;2.95;100.00;100616.66;5094142;28;20502;-77
2022/01/30 07:31:47;;;;;;;14.18;2.47;;;;;;;2.61;100.00;100625.97;5092509;28;20048;-77
2022/01/30 07:34:14;;;;;;;20.23;2.88;;;;;;;2.33;100.00;100622.06;5092271;28;20123;-77
2022/01/30 07:36:42;;;;;;;23.77;3.15;;;;;;;2.47;100.00;100632.88;5093977;28;20117;-77
2022/01/30 07:39:12;;;;;;;14.63;2.30;;;;;;;2.45;100.00;100632.38;5092919;28;20042;-77
2022/01/30 07:41:39;;;;;;;10.10;2.60;;;;;;;2.36;100.00;100646.22;5059439;28;20040;-77
2022/01/30 07:44:06;;;;;;;10.40;2.97;;;;;;;2.11;100.00;100624.25;5091913;28;20040;-77
2022/01/30 07:46:35;;;;;;;13.70;2.38;;;;;;;1.96;100.00;100633.06;5075949;28;20070;-77
2022/01/30 07:49:02;;;;;;;14.68;2.50;;;;;;;2.06;100.00;100650.03;5075608;28;20040;-77
2022/01/30 07:51:30;;;;;;;11.18;2.28;;;;;;;2.05;100.00;100633.84;5093511;28;20069;-77
2022/01/30 07:53:57;;;;;;;10.93;2.63;;;;;;;2.18;100.00;100630.88;5092376;28;20141;-77
2022/01/30 07:56:24;;;;;;;11.88;2.38;;;;;;;2.17;100.00;100633.94;5093309;28;20044;-77
2022/01/30 07:58:51;;;;;;;14.85;2.85;;;;;;;2.08;100.00;100635.94;5091054;28;20738;-77
2022/01/30 08:01:19;;;;;;;12.15;3.08;;;;;;;1.99;100.00;100632.41;5091170;28;20383;-77
2022/01/30 08:03:46;;;;;;;12.43;2.85;;;;;;;1.64;100.00;100626.97;5092061;28;20848;-76
2022/01/30 08:06:14;;;;;;;11.48;2.60;;;;;;;1.66;100.00;100619.22;5090923;28;20993;-77
2022/01/30 08:08:41;;;;;;;14.75;2.35;;;;;;;1.68;100.00;100605.09;5093558;28;20035;-80
2022/01/30 08:11:09;;;;;;;18.08;2.80;;;;;;;1.76;100.00;100596.81;5093293;28;20044;-77
2022/01/30 08:13:36;;;;;;;17.20;2.88;;;;;;;1.85;100.00;100594.81;5091885;28;20042;-77
2022/01/30 08:16:04;;;;;;;32.53;18.05;;;;;;;1.83;100.00;100588.81;5092964;28;20052;-77
2022/01/30 08:18:33;;;;;;;18.25;3.58;;;;;;;1.86;100.00;100590.13;5093035;28;20146;-77
2022/01/30 08:21:01;;;;;;;17.15;3.60;;;;;;;1.27;100.00;100572.56;5087295;28;20051;-77
2022/01/30 08:23:29;;;;;;;161.05;116.03;;;;;;;1.54;100.00;100599.78;5057282;28;20045;-77
2022/01/30 08:25:56;;;;;;;19.63;9.60;;;;;;;1.61;100.00;100597.31;5071466;28;20050;-77
2022/01/30 08:28:24;;;;;;;26.48;13.50;;;;;;;1.50;100.00;100625.56;5070154;28;20041;-77
2022/01/30 08:30:51;;;;;;;15.80;5.32;;;;;;;1.61;100.00;100613.84;5071078;28;20041;-77
2022/01/30 08:33:19;;;;;;;15.02;3.83;;;;;;;1.66;100.00;100619.22;5072489;28;20468;-77
2022/01/30 08:35:48;;;;;;;21.00;7.57;;;;;;;1.67;100.00;100618.06;5072896;28;20072;-77
2022/01/30 08:38:18;;;;;;;;;;;;;;;1.77;100.00;100636.19;5072142;28;20037;-77
2022/01/30 08:40:46;;;;;;;21.17;6.30;;;;;;;1.64;100.00;100593.91;5073170;28;20011;-77
2022/01/30 08:43:15;;;;;;;20.92;5.63;;;;;;;1.76;100.00;100602.31;5071650;28;20036;-77
2022/01/30 08:45:42;;;;;;;17.85;6.00;;;;;;;1.77;100.00;100601.16;5072789;28;20048;-77
2022/01/30 08:48:09;;;;;;;16.10;6.70;;;;;;;1.78;100.00;100594.53;5071643;28;20087;-77
2022/01/30 08:50:36;;;;;;;17.58;6.05;;;;;;;1.92;100.00;100610.03;5055348;28;20059;-77
2022/01/30 08:53:04;;;;;;;16.10;4.13;;;;;;;1.33;100.00;100593.31;5072684;28;20071;-77
2022/01/30 08:55:33;;;;;;;18.30;4.28;;;;;;;1.54;100.00;100587.94;5056329;28;20036;-77
2022/01/30 08:58:07;;;;;;;14.55;3.38;;;;;;;1.39;100.00;100604.97;5075287;28;20063;-77
2022/01/30 09:00:36;;;;;;;23.08;4.68;;;;;;;1.11;100.00;100629.28;5058880;28;20037;-76
2022/01/30 09:03:05;;;;;;;18.15;4.15;;;;;;;1.13;100.00;100588.47;5076249;28;20043;-76
2022/01/30 09:05:33;;;;;;;17.52;4.22;;;;;;;1.50;100.00;100593.28;5075482;28;20044;-76
2022/01/30 09:08:04;;;;;;;17.70;5.03;;;;;;;1.82;100.00;100622.22;5075348;28;20054;-76
2022/01/30 09:10:33;;;;;;;22.17;6.13;;;;;;;1.75;100.00;100572.31;5076560;28;20032;-77
2022/01/30 09:13:00;;;;;;;23.52;3.75;;;;;;;1.65;100.00;100597.50;5074702;28;20492;-77
2022/01/30 09:15:28;;;;;;;15.27;3.13;;;;;;;1.97;100.00;100629.19;5076159;28;20050;-77
2022/01/30 09:17:57;;;;;;;26.15;5.35;;;;;;;1.99;100.00;100621.38;5057309;28;20063;-76
2022/01/30 09:20:24;;;;;;;17.75;3.22;;;;;;;2.10;100.00;100631.72;5076233;28;20518;-76
2022/01/30 09:22:53;;;;;;;12.98;3.05;;;;;;;2.18;100.00;100624.56;5072511;28;20142;-76
2022/01/30 09:25:20;;;;;;;;;;;;;;;2.30;100.00;100621.91;5059261;28;20044;-75
2022/01/30 09:27:48;;;;;;;13.23;3.75;;;;;;;2.17;100.00;100612.72;5070260;28;19920;-76
2022/01/30 09:30:17;;;;;;;71.68;56.17;;;;;;;2.22;100.00;100637.34;5069252;28;20055;-76
2022/01/30 09:32:45;;;;;;;37.50;28.17;;;;;;;2.20;100.00;100627.78;5057469;28;20156;-76
2022/01/30 09:35:12;;;;;;;22.27;10.55;;;;;;;2.44;100.00;100617.78;5050845;28;20097;-75
2022/01/30 09:37:39;;;;;;;24.25;8.90;;;;;;;2.71;100.00;100627.53;5074828;28;20036;-76
2022/01/30 09:40:07;;;;;;;17.80;6.95;;;;;;;2.99;100.00;100628.63;5090200;28;20051;-76
2022/01/30 09:42:35;;;;;;;13.10;3.60;;;;;;;3.02;100.00;100627.97;5096386;28;20043;-76
2022/01/30 09:45:04;;;;;;;20.55;3.90;;;;;;;3.23;100.00;100615.78;5095963;28;20073;-76
2022/01/30 09:47:33;;;;;;;14.63;3.97;;;;;;;3.23;100.00;100606.69;5089917;28;20043;-76
2022/01/30 09:50:04;;;;;;;15.90;3.78;;;;;;;3.43;100.00;100600.31;5094689;28;20119;-76
2022/01/30 09:52:31;;;;;;;18.17;4.32;;;;;;;3.58;100.00;100592.22;5087310;28;20041;-76
2022/01/30 09:54:58;;;;;;;13.50;3.55;;;;;;;3.65;100.00;100591.66;5076921;28;20052;-76
2022/01/30 09:57:25;;;;;;;11.80;3.28;;;;;;;3.91;100.00;100588.63;5061614;28;20032;-76
2022/01/30 09:59:55;;;;;;;14.38;2.90;;;;;;;4.05;100.00;100587.13;5071770;28;20038;-78
2022/01/30 10:02:26;;;;;;;14.55;2.95;;;;;;;4.11;100.00;100588.53;5082325;28;20033;-77
2022/01/30 10:04:53;;;;;;;21.00;2.70;;;;;;;4.37;100.00;100580.72;5074190;28;20044;-76
2022/01/30 10:07:26;;;;;;;;;;;;;;;4.69;100.00;100581.72;5072910;28;20371;-76
2022/01/30 10:10:07;;;;;;;12.30;2.13;;;;;;;5.07;100.00;100571.81;5062398;28;20584;-76
2022/01/30 10:12:34;;;;;;;21.25;3.38;;;;;;;5.38;100.00;100571.13;5055016;28;20047;-76
2022/01/30 10:15:08;;;;;;;18.58;3.92;;;;;;;5.04;100.00;100550.34;5092312;28;20039;-76
2022/01/30 10:17:40;;;;;;;14.70;3.03;;;;;;;5.19;100.00;100551.59;5086673;28;20123;-76
2022/01/30 10:20:35;;;;;;;14.65;3.25;;;;;;;5.59;100.00;100544.81;5026904;28;20076;-76
2022/01/30 10:23:08;;;;;;;20.20;2.53;;;;;;;5.72;100.00;100541.97;5074852;28;20082;-76
2022/01/30 10:25:47;;;;;;;17.27;3.17;;;;;;;6.15;100.00;100551.06;5073747;28;20477;-76
2022/01/30 10:28:17;;;;;;;16.48;3.03;;;;;;;6.53;100.00;100539.28;5072136;28;20036;-76
2022/01/30 10:30:53;;;;;;;21.35;4.03;;;;;;;6.44;100.00;100530.34;5073557;28;20044;-76
2022/01/30 10:33:22;;;;;;;12.15;2.67;;;;;;;6.77;100.00;100533.53;5074993;28;20110;-76
2022/01/30 10:35:52;;;;;;;20.95;3.47;;;;;;;6.73;100.00;100521.50;5073438;28;20047;-76
2022/01/30 10:38:33;;;;;;;29.02;4.18;;;;;;;6.88;100.00;100506.75;5073215;28;20126;-76
2022/01/30 10:41:14;;;;;;;25.40;3.33;;;;;;;7.16;100.00;100510.16;5056853;28;20055;-76
2022/01/30 10:43:59;;;;;;;16.40;3.65;;;;;;;7.36;100.00;100511.75;5056493;28;20110;-76
2022/01/30 10:46:40;;;;;;;29.02;3.63;;;;;;;7.22;100.00;100483.66;5073132;28;20068;-76
2022/01/30 10:49:12;;;;;;;25.33;3.92;;;;;;;7.29;100.00;100486.56;5074552;28;20059;-76
2022/01/30 10:51:53;;;;;;;31.30;3.60;;;;;;;7.60;100.00;100489.16;5073212;28;20464;-76
2022/01/30 10:54:25;;;;;;;22.60;3.28;;;;;;;7.38;100.00;100498.25;5072200;28;20040;-76
2022/01/30 10:57:02;;;;;;;17.13;3.03;;;;;;;7.49;100.00;100493.72;5073118;28;20040;-76
2022/01/30 10:59:29;;;;;;;19.30;3.22;;;;;;;7.57;100.00;100489.09;5072906;28;20041;-77
2022/01/30 11:02:11;;;;;;;17.75;3.63;;;;;;;7.82;100.00;100468.88;5074127;28;20052;-76
2022/01/30 11:04:38;;;;;;;16.73;3.08;;;;;;;7.90;100.00;100467.84;5073150;28;20549;-77
2022/01/30 11:07:06;;;;;;;17.50;3.50;;;;;;;7.99;100.00;100462.00;5081941;28;20051;-77
2022/01/30 11:12:09;;;;;;;19.67;3.30;;;;;;;7.82;100.00;100463.31;5094068;28;20086;-75
2022/01/30 11:17:20;;;;;;;43.08;23.70;;;;;;;8.03;100.00;100446.16;5094225;28;20044;-76
2022/01/30 11:19:51;;;;;;;23.95;8.02;;;;;;;8.07;100.00;100436.69;5093080;28;20075;-77
2022/01/30 11:22:21;;;;;;;54.72;30.70;;;;;;;7.88;100.00;100433.19;5092481;28;20043;-77
2022/01/30 11:24:53;;;;;;;;;;;;;;;8.04;100.00;100431.84;5074018;28;20040;-76
2022/01/30 11:27:22;;;;;;;34.92;16.50;;;;;;;7.92;100.00;100397.88;5072825;28;20006;-77
2022/01/30 11:29:51;;;;;;;32.42;10.02;;;;;;;8.13;100.00;100412.94;5072846;28;20480;-77
2022/01/30 11:32:21;;;;;;;40.35;18.52;;;;;;;8.16;100.00;100403.84;5073149;28;20064;-76
2022/01/30 11:34:50;;;;;;;23.95;4.55;;;;;;;8.05;100.00;100388.94;5073123;28;20040;-77
2022/01/30 11:37:23;;;;;;;23.25;4.50;;;;;;;7.71;100.00;100401.09;5060446;28;20044;-76
2022/01/30 11:39:52;;;;;;;20.88;4.32;;;;;;;7.38;100.00;100392.59;5067764;28;20040;-76
2022/01/30 11:42:35;;;;;;;19.08;4.60;;;;;;;7.35;100.00;100398.91;5072247;28;20049;-76
2022/01/30 11:45:12;;;;;;;19.33;3.92;;;;;;;7.41;100.00;100377.94;5071916;28;20040;-76
2022/01/30 11:48:12;;;;;;;19.70;7.20;;;;;;;7.36;100.00;100384.63;5073081;28;20040;-77
2022/01/30 11:50:40;;;;;;;15.75;3.67;;;;;;;7.39;100.00;100355.28;5072823;28;20047;-77
2022/01/30 11:53:08;;;;;;;22.10;4.35;;;;;;;7.65;100.00;100352.53;5071817;28;20040;-76
2022/01/30 11:55:54;;;;;;;22.33;4.03;;;;;;;7.69;100.00;100358.16;5088452;28;20041;-76
2022/01/30 11:58:30;;;;;;;22.73;3.60;;;;;;;7.45;100.00;100353.00;5071906;28;20135;-77
2022/01/30 12:01:11;;;;;;;24.15;5.25;;;;;;;7.71;100.00;100355.81;5073163;28;20068;-76
2022/01/30 12:03:39;;;;;;;29.20;4.55;;;;;;;7.70;100.00;100338.31;5055389;28;20051;-77
2022/01/30 12:06:21;;;;;;;23.58;4.20;;;;;;;7.41;100.00;100336.22;5054666;28;20121;-76
2022/01/30 12:08:49;;;;;;;29.70;4.65;;;;;;;7.45;100.00;100336.31;5072001;28;20043;-76
2022/01/30 12:11:35;;;;;;;25.90;4.82;;;;;;;7.08;100.00;100322.97;5055028;28;20148;-76
2022/01/30 12:14:06;;;;;;;24.83;4.20;;;;;;;7.12;100.00;100315.50;5071827;28;20037;-76
2022/01/30 12:16:48;;;;;;;20.52;3.90;;;;;;;7.00;100.00;100326.78;5073147;28;20044;-76
2022/01/30 12:19:40;;;;;;;22.80;3.70;;;;;;;7.29;100.00;100316.97;5072560;28;20068;-76
2022/01/30 12:22:16;;;;;;;20.80;3.08;;;;;;;7.43;100.00;100308.06;5072896;28;20040;-77
2022/01/30 12:24:45;;;;;;;28.05;3.63;;;;;;;7.44;100.00;100301.34;5092773;28;20101;-76
2022/01/30 12:27:12;;;;;;;12.93;2.95;;;;;;;7.31;100.00;100287.59;5092479;28;20096;-77
2022/01/30 12:29:45;;;;;;;21.40;3.53;;;;;;;7.14;100.00;100287.31;5091794;28;20040;-77